sensor_id;sensor_type;location;lat;lon;timestamp;P1;durP1;ratioP1;P2;durP2;ratioP2
43606;SDS011;29197;44.788;10.366;2023-05-07T00:01:47;4.97;;;4.47;;
43606;SDS011;29197;44.788;10.366;2023-05-07T00:04:36;5.77;;;5.20;;
43606;SDS011;29197;44.788;10.366;2023-05-07T00:07:25;4.82;;;4.43;;
43606;SDS011;29197;44.788;10.366;2023-05-07T00:10:14;5.63;;;5.00;;
43606;SDS011;29197;44.788;10.366;2023-05-07T00:13:02;5.65;;;5.10;;
43606;SDS011;29197;44.788;10.366;2023-05-07T00:15:51;5.72;;;5.13;;
43606;SDS011;29197;44.788;10.366;2023-05-07T00:18:40;6.00;;;5.20;;
43606;SDS011;29197;44.788;10.366;2023-05-07T00:21:29;5.18;;;4.68;;
43606;SDS011;29197;44.788;10.366;2023-05-07T00:24:18;6.05;;;5.45;;
43606;SDS011;29197;44.788;10.366;2023-05-07T00:27:06;5.78;;;5.18;;
43606;SDS011;29197;44.788;10.366;2023-05-07T00:29:55;5.88;;;5.28;;
43606;SDS011;29197;44.788;10.366;2023-05-07T00:32:44;5.28;;;4.78;;
43606;SDS011;29197;44.788;10.366;2023-05-07T00:35:32;9.45;;;8.48;;
43606;SDS011;29197;44.788;10.366;2023-05-07T00:38:22;6.93;;;6.23;;
43606;SDS011;29197;44.788;10.366;2023-05-07T00:41:11;6.93;;;6.22;;
43606;SDS011;29197;44.788;10.366;2023-05-07T00:43:59;6.20;;;5.60;;
43606;SDS011;29197;44.788;10.366;2023-05-07T00:46:49;5.43;;;4.93;;
43606;SDS011;29197;44.788;10.366;2023-05-07T00:49:38;6.30;;;5.70;;
43606;SDS011;29197;44.788;10.366;2023-05-07T00:52:27;6.35;;;5.65;;
43606;SDS011;29197;44.788;10.366;2023-05-07T00:55:18;5.95;;;5.32;;
43606;SDS011;29197;44.788;10.366;2023-05-07T00:58:07;5.80;;;5.20;;
43606;SDS011;29197;44.788;10.366;2023-05-07T01:00:59;5.68;;;5.15;;
43606;SDS011;29197;44.788;10.366;2023-05-07T01:03:47;5.65;;;5.13;;
43606;SDS011;29197;44.788;10.366;2023-05-07T01:06:36;5.72;;;5.22;;
43606;SDS011;29197;44.788;10.366;2023-05-07T01:09:26;5.38;;;4.88;;
43606;SDS011;29197;44.788;10.366;2023-05-07T01:12:17;5.93;;;5.32;;
43606;SDS011;29197;44.788;10.366;2023-05-07T01:15:07;5.85;;;5.05;;
43606;SDS011;29197;44.788;10.366;2023-05-07T01:17:57;6.07;;;5.47;;
43606;SDS011;29197;44.788;10.366;2023-05-07T01:20:45;5.70;;;5.10;;
43606;SDS011;29197;44.788;10.366;2023-05-07T01:23:35;5.90;;;5.40;;
43606;SDS011;29197;44.788;10.366;2023-05-07T01:26:24;6.60;;;5.90;;
43606;SDS011;29197;44.788;10.366;2023-05-07T01:29:13;6.05;;;5.00;;
43606;SDS011;29197;44.788;10.366;2023-05-07T01:32:02;5.20;;;4.68;;
43606;SDS011;29197;44.788;10.366;2023-05-07T01:34:51;5.33;;;4.83;;
43606;SDS011;29197;44.788;10.366;2023-05-07T01:37:41;5.57;;;4.97;;
43606;SDS011;29197;44.788;10.366;2023-05-07T01:40:31;6.47;;;5.82;;
43606;SDS011;29197;44.788;10.366;2023-05-07T01:43:21;5.47;;;4.97;;
43606;SDS011;29197;44.788;10.366;2023-05-07T01:46:09;5.30;;;4.80;;
43606;SDS011;29197;44.788;10.366;2023-05-07T01:48:58;6.63;;;5.93;;
43606;SDS011;29197;44.788;10.366;2023-05-07T01:51:47;7.17;;;6.30;;
43606;SDS011;29197;44.788;10.366;2023-05-07T01:54:36;6.88;;;6.18;;
43606;SDS011;29197;44.788;10.366;2023-05-07T01:57:26;7.32;;;5.95;;
43606;SDS011;29197;44.788;10.366;2023-05-07T02:00:15;6.40;;;5.80;;
43606;SDS011;29197;44.788;10.366;2023-05-07T02:03:04;7.53;;;6.75;;
43606;SDS011;29197;44.788;10.366;2023-05-07T02:05:52;7.03;;;6.32;;
43606;SDS011;29197;44.788;10.366;2023-05-07T02:08:41;7.75;;;6.78;;
43606;SDS011;29197;44.788;10.366;2023-05-07T02:11:30;8.35;;;6.90;;
43606;SDS011;29197;44.788;10.366;2023-05-07T02:14:19;9.17;;;7.87;;
43606;SDS011;29197;44.788;10.366;2023-05-07T02:17:08;9.05;;;7.95;;
43606;SDS011;29197;44.788;10.366;2023-05-07T02:19:56;9.95;;;8.75;;
43606;SDS011;29197;44.788;10.366;2023-05-07T02:22:45;9.85;;;8.70;;
43606;SDS011;29197;44.788;10.366;2023-05-07T02:25:33;10.38;;;9.38;;
43606;SDS011;29197;44.788;10.366;2023-05-07T02:28:22;10.43;;;9.15;;
43606;SDS011;29197;44.788;10.366;2023-05-07T02:31:12;9.93;;;8.90;;
43606;SDS011;29197;44.788;10.366;2023-05-07T02:34:00;10.23;;;9.18;;
43606;SDS011;29197;44.788;10.366;2023-05-07T02:36:49;12.23;;;10.38;;
43606;SDS011;29197;44.788;10.366;2023-05-07T02:39:37;14.40;;;10.98;;
43606;SDS011;29197;44.788;10.366;2023-05-07T02:42:26;14.00;;;12.60;;
43606;SDS011;29197;44.788;10.366;2023-05-07T02:45:14;13.57;;;12.03;;
43606;SDS011;29197;44.788;10.366;2023-05-07T02:48:05;15.10;;;13.40;;
43606;SDS011;29197;44.788;10.366;2023-05-07T02:50:53;16.88;;;15.07;;
43606;SDS011;29197;44.788;10.366;2023-05-07T02:53:42;13.60;;;12.20;;
43606;SDS011;29197;44.788;10.366;2023-05-07T02:56:31;13.50;;;12.10;;
43606;SDS011;29197;44.788;10.366;2023-05-07T02:59:19;15.85;;;14.15;;
43606;SDS011;29197;44.788;10.366;2023-05-07T03:02:08;14.70;;;13.20;;
43606;SDS011;29197;44.788;10.366;2023-05-07T03:04:58;14.95;;;12.68;;
43606;SDS011;29197;44.788;10.366;2023-05-07T03:07:46;10.50;;;9.40;;
43606;SDS011;29197;44.788;10.366;2023-05-07T03:10:35;10.13;;;8.57;;
43606;SDS011;29197;44.788;10.366;2023-05-07T03:13:23;8.00;;;6.63;;
43606;SDS011;29197;44.788;10.366;2023-05-07T03:16:12;4.90;;;4.40;;
43606;SDS011;29197;44.788;10.366;2023-05-07T03:19:01;7.18;;;6.47;;
43606;SDS011;29197;44.788;10.366;2023-05-07T03:21:51;4.25;;;3.80;;
43606;SDS011;29197;44.788;10.366;2023-05-07T03:24:39;4.10;;;3.70;;
43606;SDS011;29197;44.788;10.366;2023-05-07T03:27:28;3.53;;;3.22;;
43606;SDS011;29197;44.788;10.366;2023-05-07T03:30:17;3.85;;;3.45;;
43606;SDS011;29197;44.788;10.366;2023-05-07T03:33:05;3.17;;;2.88;;
43606;SDS011;29197;44.788;10.366;2023-05-07T03:35:54;3.20;;;2.90;;
43606;SDS011;29197;44.788;10.366;2023-05-07T03:38:44;3.72;;;3.10;;
43606;SDS011;29197;44.788;10.366;2023-05-07T03:41:33;4.83;;;3.80;;
43606;SDS011;29197;44.788;10.366;2023-05-07T03:44:22;3.60;;;3.05;;
43606;SDS011;29197;44.788;10.366;2023-05-07T03:47:10;3.90;;;3.50;;
43606;SDS011;29197;44.788;10.366;2023-05-07T03:49:59;3.78;;;2.92;;
43606;SDS011;29197;44.788;10.366;2023-05-07T03:52:48;4.20;;;3.65;;
43606;SDS011;29197;44.788;10.366;2023-05-07T03:55:38;5.27;;;4.20;;
43606;SDS011;29197;44.788;10.366;2023-05-07T03:58:26;4.60;;;4.07;;
43606;SDS011;29197;44.788;10.366;2023-05-07T04:01:15;4.13;;;3.20;;
43606;SDS011;29197;44.788;10.366;2023-05-07T04:04:03;3.47;;;3.17;;
43606;SDS011;29197;44.788;10.366;2023-05-07T04:06:52;3.93;;;3.20;;
43606;SDS011;29197;44.788;10.366;2023-05-07T04:09:40;3.72;;;3.30;;
43606;SDS011;29197;44.788;10.366;2023-05-07T04:12:30;3.03;;;2.60;;
43606;SDS011;29197;44.788;10.366;2023-05-07T04:15:19;2.90;;;2.60;;
43606;SDS011;29197;44.788;10.366;2023-05-07T04:18:07;2.67;;;2.47;;
43606;SDS011;29197;44.788;10.366;2023-05-07T04:20:56;3.20;;;2.67;;
43606;SDS011;29197;44.788;10.366;2023-05-07T04:23:45;2.67;;;2.47;;
43606;SDS011;29197;44.788;10.366;2023-05-07T04:26:34;2.53;;;2.30;;
43606;SDS011;29197;44.788;10.366;2023-05-07T04:29:24;2.70;;;2.50;;
43606;SDS011;29197;44.788;10.366;2023-05-07T04:32:12;4.70;;;2.60;;
43606;SDS011;29197;44.788;10.366;2023-05-07T04:35:01;2.55;;;2.35;;
43606;SDS011;29197;44.788;10.366;2023-05-07T04:37:49;3.10;;;2.50;;
43606;SDS011;29197;44.788;10.366;2023-05-07T04:40:38;3.60;;;3.30;;
43606;SDS011;29197;44.788;10.366;2023-05-07T04:43:26;3.17;;;2.80;;
43606;SDS011;29197;44.788;10.366;2023-05-07T04:46:16;3.33;;;3.03;;
43606;SDS011;29197;44.788;10.366;2023-05-07T04:49:05;4.28;;;3.83;;
43606;SDS011;29197;44.788;10.366;2023-05-07T04:51:53;3.75;;;3.40;;
43606;SDS011;29197;44.788;10.366;2023-05-07T04:54:42;5.93;;;5.07;;
43606;SDS011;29197;44.788;10.366;2023-05-07T04:57:30;7.32;;;4.70;;
43606;SDS011;29197;44.788;10.366;2023-05-07T05:00:19;6.63;;;5.40;;
43606;SDS011;29197;44.788;10.366;2023-05-07T05:03:09;5.18;;;4.50;;
43606;SDS011;29197;44.788;10.366;2023-05-07T05:05:58;4.05;;;3.22;;
43606;SDS011;29197;44.788;10.366;2023-05-07T05:08:47;4.72;;;4.22;;
43606;SDS011;29197;44.788;10.366;2023-05-07T05:11:35;6.07;;;4.88;;
43606;SDS011;29197;44.788;10.366;2023-05-07T05:14:24;4.40;;;4.00;;
43606;SDS011;29197;44.788;10.366;2023-05-07T05:17:13;4.82;;;4.10;;
43606;SDS011;29197;44.788;10.366;2023-05-07T05:20:04;6.07;;;4.18;;
43606;SDS011;29197;44.788;10.366;2023-05-07T05:22:53;4.07;;;3.67;;
43606;SDS011;29197;44.788;10.366;2023-05-07T05:25:42;3.25;;;2.88;;
43606;SDS011;29197;44.788;10.366;2023-05-07T05:28:31;3.87;;;3.20;;
43606;SDS011;29197;44.788;10.366;2023-05-07T05:31:20;3.22;;;2.92;;
43606;SDS011;29197;44.788;10.366;2023-05-07T05:34:08;5.45;;;4.43;;
43606;SDS011;29197;44.788;10.366;2023-05-07T05:36:59;4.70;;;4.00;;
43606;SDS011;29197;44.788;10.366;2023-05-07T05:39:48;5.00;;;4.50;;
43606;SDS011;29197;44.788;10.366;2023-05-07T05:42:36;4.30;;;3.90;;
43606;SDS011;29197;44.788;10.366;2023-05-07T05:45:25;5.35;;;4.35;;
43606;SDS011;29197;44.788;10.366;2023-05-07T05:48:14;4.20;;;3.80;;
43606;SDS011;29197;44.788;10.366;2023-05-07T05:51:02;5.88;;;4.47;;
43606;SDS011;29197;44.788;10.366;2023-05-07T05:53:52;4.35;;;3.92;;
43606;SDS011;29197;44.788;10.366;2023-05-07T05:56:41;6.35;;;5.22;;
43606;SDS011;29197;44.788;10.366;2023-05-07T05:59:30;5.03;;;3.67;;
43606;SDS011;29197;44.788;10.366;2023-05-07T06:02:19;6.68;;;4.72;;
43606;SDS011;29197;44.788;10.366;2023-05-07T06:05:08;8.35;;;6.65;;
43606;SDS011;29197;44.788;10.366;2023-05-07T06:07:57;6.85;;;6.15;;
43606;SDS011;29197;44.788;10.366;2023-05-07T06:10:46;10.10;;;7.70;;
43606;SDS011;29197;44.788;10.366;2023-05-07T06:13:35;7.55;;;6.75;;
43606;SDS011;29197;44.788;10.366;2023-05-07T06:16:24;9.70;;;6.93;;
43606;SDS011;29197;44.788;10.366;2023-05-07T06:19:13;10.40;;;9.23;;
43606;SDS011;29197;44.788;10.366;2023-05-07T06:22:04;8.95;;;7.75;;
43606;SDS011;29197;44.788;10.366;2023-05-07T06:24:53;11.30;;;9.82;;
43606;SDS011;29197;44.788;10.366;2023-05-07T06:27:43;15.68;;;11.95;;
43606;SDS011;29197;44.788;10.366;2023-05-07T06:30:31;17.98;;;14.93;;
43606;SDS011;29197;44.788;10.366;2023-05-07T06:33:20;16.10;;;14.02;;
43606;SDS011;29197;44.788;10.366;2023-05-07T06:36:08;10.63;;;9.52;;
43606;SDS011;29197;44.788;10.366;2023-05-07T06:38:57;15.65;;;13.07;;
43606;SDS011;29197;44.788;10.366;2023-05-07T06:41:45;14.98;;;12.60;;
43606;SDS011;29197;44.788;10.366;2023-05-07T06:44:35;17.10;;;14.07;;
43606;SDS011;29197;44.788;10.366;2023-05-07T06:47:23;10.82;;;9.23;;
43606;SDS011;29197;44.788;10.366;2023-05-07T06:50:12;9.57;;;8.48;;
43606;SDS011;29197;44.788;10.366;2023-05-07T06:53:03;12.77;;;10.68;;
43606;SDS011;29197;44.788;10.366;2023-05-07T06:55:51;13.90;;;12.43;;
43606;SDS011;29197;44.788;10.366;2023-05-07T06:58:40;16.63;;;13.35;;
43606;SDS011;29197;44.788;10.366;2023-05-07T07:01:30;18.40;;;15.05;;
43606;SDS011;29197;44.788;10.366;2023-05-07T07:04:19;23.92;;;18.15;;
43606;SDS011;29197;44.788;10.366;2023-05-07T07:07:09;21.42;;;17.35;;
43606;SDS011;29197;44.788;10.366;2023-05-07T07:09:57;19.87;;;17.23;;
43606;SDS011;29197;44.788;10.366;2023-05-07T07:12:46;15.45;;;12.65;;
43606;SDS011;29197;44.788;10.366;2023-05-07T07:15:34;20.25;;;16.15;;
43606;SDS011;29197;44.788;10.366;2023-05-07T07:18:24;17.67;;;12.50;;
43606;SDS011;29197;44.788;10.366;2023-05-07T07:21:13;17.83;;;15.00;;
43606;SDS011;29197;44.788;10.366;2023-05-07T07:24:01;15.25;;;12.75;;
43606;SDS011;29197;44.788;10.366;2023-05-07T07:26:50;10.80;;;9.02;;
43606;SDS011;29197;44.788;10.366;2023-05-07T07:29:39;15.50;;;12.38;;
43606;SDS011;29197;44.788;10.366;2023-05-07T07:32:28;16.25;;;13.45;;
43606;SDS011;29197;44.788;10.366;2023-05-07T07:35:18;10.95;;;9.77;;
43606;SDS011;29197;44.788;10.366;2023-05-07T07:38:06;16.80;;;13.65;;
43606;SDS011;29197;44.788;10.366;2023-05-07T07:40:55;12.57;;;10.53;;
43606;SDS011;29197;44.788;10.366;2023-05-07T07:43:44;9.60;;;8.60;;
43606;SDS011;29197;44.788;10.366;2023-05-07T07:46:35;14.23;;;12.10;;
43606;SDS011;29197;44.788;10.366;2023-05-07T07:49:24;13.90;;;10.38;;
43606;SDS011;29197;44.788;10.366;2023-05-07T07:52:14;9.07;;;8.00;;
43606;SDS011;29197;44.788;10.366;2023-05-07T07:55:03;7.63;;;6.78;;
43606;SDS011;29197;44.788;10.366;2023-05-07T07:57:52;8.80;;;7.82;;
43606;SDS011;29197;44.788;10.366;2023-05-07T08:00:41;9.30;;;8.05;;
43606;SDS011;29197;44.788;10.366;2023-05-07T08:03:30;6.57;;;5.65;;
43606;SDS011;29197;44.788;10.366;2023-05-07T08:06:19;7.35;;;6.60;;
43606;SDS011;29197;44.788;10.366;2023-05-07T08:09:09;7.80;;;7.00;;
43606;SDS011;29197;44.788;10.366;2023-05-07T08:11:58;9.15;;;7.75;;
43606;SDS011;29197;44.788;10.366;2023-05-07T08:14:47;11.10;;;8.90;;
43606;SDS011;29197;44.788;10.366;2023-05-07T08:17:36;8.32;;;6.50;;
43606;SDS011;29197;44.788;10.366;2023-05-07T08:20:24;8.07;;;5.75;;
43606;SDS011;29197;44.788;10.366;2023-05-07T08:23:13;5.80;;;5.20;;
43606;SDS011;29197;44.788;10.366;2023-05-07T08:26:03;8.00;;;7.13;;
43606;SDS011;29197;44.788;10.366;2023-05-07T08:28:52;8.00;;;6.80;;
43606;SDS011;29197;44.788;10.366;2023-05-07T08:31:40;7.80;;;7.00;;
43606;SDS011;29197;44.788;10.366;2023-05-07T08:34:29;4.93;;;4.43;;
43606;SDS011;29197;44.788;10.366;2023-05-07T08:37:18;6.60;;;5.90;;
43606;SDS011;29197;44.788;10.366;2023-05-07T08:40:07;7.88;;;7.07;;
43606;SDS011;29197;44.788;10.366;2023-05-07T08:43:00;4.85;;;4.43;;
43606;SDS011;29197;44.788;10.366;2023-05-07T08:45:50;6.80;;;5.07;;
43606;SDS011;29197;44.788;10.366;2023-05-07T08:48:41;5.88;;;5.28;;
43606;SDS011;29197;44.788;10.366;2023-05-07T08:51:30;5.20;;;4.30;;
43606;SDS011;29197;44.788;10.366;2023-05-07T08:54:19;10.30;;;8.93;;
43606;SDS011;29197;44.788;10.366;2023-05-07T08:57:08;6.30;;;5.22;;
43606;SDS011;29197;44.788;10.366;2023-05-07T08:59:58;8.80;;;7.80;;
43606;SDS011;29197;44.788;10.366;2023-05-07T09:02:47;9.02;;;7.95;;
43606;SDS011;29197;44.788;10.366;2023-05-07T09:05:36;8.45;;;7.50;;
43606;SDS011;29197;44.788;10.366;2023-05-07T09:08:25;6.05;;;5.20;;
43606;SDS011;29197;44.788;10.366;2023-05-07T09:11:14;4.83;;;4.33;;
43606;SDS011;29197;44.788;10.366;2023-05-07T09:14:03;9.87;;;7.27;;
43606;SDS011;29197;44.788;10.366;2023-05-07T09:16:54;5.82;;;5.22;;
43606;SDS011;29197;44.788;10.366;2023-05-07T09:19:43;4.35;;;3.85;;
43606;SDS011;29197;44.788;10.366;2023-05-07T09:22:33;4.32;;;3.83;;
43606;SDS011;29197;44.788;10.366;2023-05-07T09:25:27;4.77;;;4.20;;
43606;SDS011;29197;44.788;10.366;2023-05-07T09:28:17;4.75;;;4.32;;
43606;SDS011;29197;44.788;10.366;2023-05-07T09:31:05;6.03;;;5.43;;
43606;SDS011;29197;44.788;10.366;2023-05-07T09:33:55;3.97;;;3.60;;
43606;SDS011;29197;44.788;10.366;2023-05-07T09:36:45;3.50;;;3.20;;
43606;SDS011;29197;44.788;10.366;2023-05-07T09:39:40;3.90;;;3.60;;
43606;SDS011;29197;44.788;10.366;2023-05-07T09:42:29;3.70;;;3.30;;
43606;SDS011;29197;44.788;10.366;2023-05-07T09:45:21;3.10;;;2.80;;
43606;SDS011;29197;44.788;10.366;2023-05-07T09:48:10;5.20;;;4.30;;
43606;SDS011;29197;44.788;10.366;2023-05-07T09:51:06;5.38;;;4.28;;
43606;SDS011;29197;44.788;10.366;2023-05-07T09:53:59;5.47;;;4.82;;
43606;SDS011;29197;44.788;10.366;2023-05-07T09:56:50;3.78;;;3.22;;
43606;SDS011;29197;44.788;10.366;2023-05-07T09:59:40;7.63;;;6.50;;
43606;SDS011;29197;44.788;10.366;2023-05-07T10:02:30;5.85;;;5.30;;
43606;SDS011;29197;44.788;10.366;2023-05-07T10:05:23;6.63;;;5.57;;
43606;SDS011;29197;44.788;10.366;2023-05-07T10:08:14;5.10;;;4.60;;
43606;SDS011;29197;44.788;10.366;2023-05-07T10:11:04;4.93;;;4.00;;
43606;SDS011;29197;44.788;10.366;2023-05-07T10:13:53;4.50;;;4.10;;
43606;SDS011;29197;44.788;10.366;2023-05-07T10:16:42;4.75;;;4.03;;
43606;SDS011;29197;44.788;10.366;2023-05-07T10:19:31;6.30;;;4.57;;
43606;SDS011;29197;44.788;10.366;2023-05-07T10:22:23;3.65;;;3.20;;
43606;SDS011;29197;44.788;10.366;2023-05-07T10:25:16;3.92;;;3.20;;
43606;SDS011;29197;44.788;10.366;2023-05-07T10:28:08;5.40;;;3.60;;
43606;SDS011;29197;44.788;10.366;2023-05-07T10:31:01;8.27;;;7.10;;
43606;SDS011;29197;44.788;10.366;2023-05-07T10:33:58;7.73;;;6.93;;
43606;SDS011;29197;44.788;10.366;2023-05-07T10:36:48;5.63;;;5.03;;
43606;SDS011;29197;44.788;10.366;2023-05-07T10:39:38;5.90;;;5.30;;
43606;SDS011;29197;44.788;10.366;2023-05-07T10:42:29;6.90;;;5.73;;
43606;SDS011;29197;44.788;10.366;2023-05-07T10:45:18;6.95;;;6.20;;
43606;SDS011;29197;44.788;10.366;2023-05-07T10:48:08;5.90;;;5.30;;
43606;SDS011;29197;44.788;10.366;2023-05-07T10:51:19;8.00;;;5.95;;
43606;SDS011;29197;44.788;10.366;2023-05-07T10:54:23;8.57;;;7.50;;
43606;SDS011;29197;44.788;10.366;2023-05-07T11:00:41;7.27;;;6.50;;
43606;SDS011;29197;44.788;10.366;2023-05-07T11:03:31;8.95;;;8.05;;
43606;SDS011;29197;44.788;10.366;2023-05-07T11:06:20;4.78;;;4.38;;
43606;SDS011;29197;44.788;10.366;2023-05-07T11:09:08;6.57;;;5.67;;
43606;SDS011;29197;44.788;10.366;2023-05-07T11:11:57;7.40;;;6.63;;
43606;SDS011;29197;44.788;10.366;2023-05-07T11:14:50;5.47;;;4.85;;
43606;SDS011;29197;44.788;10.366;2023-05-07T11:17:52;7.80;;;5.80;;
43606;SDS011;29197;44.788;10.366;2023-05-07T11:26:57;9.25;;;6.90;;
43606;SDS011;29197;44.788;10.366;2023-05-07T11:29:46;9.00;;;7.90;;
43606;SDS011;29197;44.788;10.366;2023-05-07T11:32:37;9.50;;;8.10;;
43606;SDS011;29197;44.788;10.366;2023-05-07T11:35:26;5.95;;;5.00;;
43606;SDS011;29197;44.788;10.366;2023-05-07T11:38:15;6.90;;;5.35;;
43606;SDS011;29197;44.788;10.366;2023-05-07T11:41:05;5.93;;;5.32;;
43606;SDS011;29197;44.788;10.366;2023-05-07T11:43:56;4.97;;;4.47;;
43606;SDS011;29197;44.788;10.366;2023-05-07T11:46:45;8.27;;;4.63;;
43606;SDS011;29197;44.788;10.366;2023-05-07T11:49:35;5.22;;;4.55;;
43606;SDS011;29197;44.788;10.366;2023-05-07T11:52:24;6.85;;;6.13;;
43606;SDS011;29197;44.788;10.366;2023-05-07T11:55:13;6.38;;;5.20;;
43606;SDS011;29197;44.788;10.366;2023-05-07T11:58:05;6.45;;;4.88;;
43606;SDS011;29197;44.788;10.366;2023-05-07T12:00:56;6.45;;;4.90;;
43606;SDS011;29197;44.788;10.366;2023-05-07T12:03:45;5.20;;;4.70;;
43606;SDS011;29197;44.788;10.366;2023-05-07T12:06:37;4.50;;;4.10;;
43606;SDS011;29197;44.788;10.366;2023-05-07T12:09:26;4.63;;;4.22;;
43606;SDS011;29197;44.788;10.366;2023-05-07T12:12:15;6.63;;;5.07;;
43606;SDS011;29197;44.788;10.366;2023-05-07T12:15:04;5.38;;;4.07;;
43606;SDS011;29197;44.788;10.366;2023-05-07T12:17:53;4.80;;;3.90;;
43606;SDS011;29197;44.788;10.366;2023-05-07T12:20:42;4.50;;;4.07;;
43606;SDS011;29197;44.788;10.366;2023-05-07T12:23:33;5.50;;;4.97;;
43606;SDS011;29197;44.788;10.366;2023-05-07T12:26:22;3.85;;;3.53;;
43606;SDS011;29197;44.788;10.366;2023-05-07T12:29:11;5.80;;;4.28;;
43606;SDS011;29197;44.788;10.366;2023-05-07T12:32:00;3.75;;;3.25;;
43606;SDS011;29197;44.788;10.366;2023-05-07T12:34:52;4.70;;;3.92;;
43606;SDS011;29197;44.788;10.366;2023-05-07T12:37:41;3.60;;;3.30;;
43606;SDS011;29197;44.788;10.366;2023-05-07T12:40:38;4.00;;;3.67;;
43606;SDS011;29197;44.788;10.366;2023-05-07T12:43:27;4.18;;;3.80;;
43606;SDS011;29197;44.788;10.366;2023-05-07T12:46:16;6.93;;;4.43;;
43606;SDS011;29197;44.788;10.366;2023-05-07T12:49:05;4.03;;;3.63;;
43606;SDS011;29197;44.788;10.366;2023-05-07T12:51:54;3.65;;;2.88;;
43606;SDS011;29197;44.788;10.366;2023-05-07T12:54:43;3.53;;;3.05;;
43606;SDS011;29197;44.788;10.366;2023-05-07T12:57:38;3.70;;;3.40;;
43606;SDS011;29197;44.788;10.366;2023-05-07T13:00:34;6.20;;;4.90;;
43606;SDS011;29197;44.788;10.366;2023-05-07T13:03:23;4.80;;;3.53;;
43606;SDS011;29197;44.788;10.366;2023-05-07T13:06:12;4.47;;;4.07;;
43606;SDS011;29197;44.788;10.366;2023-05-07T13:09:01;6.13;;;5.35;;
43606;SDS011;29197;44.788;10.366;2023-05-07T13:11:50;8.48;;;5.63;;
43606;SDS011;29197;44.788;10.366;2023-05-07T13:14:40;5.63;;;4.90;;
43606;SDS011;29197;44.788;10.366;2023-05-07T13:17:29;5.80;;;5.10;;
43606;SDS011;29197;44.788;10.366;2023-05-07T13:20:18;4.28;;;3.13;;
43606;SDS011;29197;44.788;10.366;2023-05-07T13:23:07;3.88;;;3.45;;
43606;SDS011;29197;44.788;10.366;2023-05-07T13:25:56;3.90;;;3.55;;
43606;SDS011;29197;44.788;10.366;2023-05-07T13:28:44;4.22;;;3.40;;
43606;SDS011;29197;44.788;10.366;2023-05-07T13:31:34;5.90;;;5.35;;
43606;SDS011;29197;44.788;10.366;2023-05-07T13:34:23;4.10;;;3.70;;
43606;SDS011;29197;44.788;10.366;2023-05-07T13:37:12;3.33;;;2.88;;
43606;SDS011;29197;44.788;10.366;2023-05-07T13:40:01;4.78;;;3.47;;
43606;SDS011;29197;44.788;10.366;2023-05-07T13:42:50;5.18;;;3.33;;
43606;SDS011;29197;44.788;10.366;2023-05-07T13:45:39;8.90;;;4.07;;
43606;SDS011;29197;44.788;10.366;2023-05-07T13:48:29;3.58;;;2.90;;
43606;SDS011;29197;44.788;10.366;2023-05-07T13:51:17;4.75;;;3.53;;
43606;SDS011;29197;44.788;10.366;2023-05-07T13:54:06;3.22;;;2.42;;
43606;SDS011;29197;44.788;10.366;2023-05-07T13:56:54;4.00;;;3.55;;
43606;SDS011;29197;44.788;10.366;2023-05-07T13:59:43;4.55;;;3.03;;
43606;SDS011;29197;44.788;10.366;2023-05-07T14:02:32;3.13;;;2.83;;
43606;SDS011;29197;44.788;10.366;2023-05-07T14:05:22;2.75;;;2.35;;
43606;SDS011;29197;44.788;10.366;2023-05-07T14:08:11;2.75;;;2.55;;
43606;SDS011;29197;44.788;10.366;2023-05-07T14:11:00;3.03;;;2.72;;
43606;SDS011;29197;44.788;10.366;2023-05-07T14:13:49;4.57;;;2.70;;
43606;SDS011;29197;44.788;10.366;2023-05-07T14:16:37;4.13;;;2.42;;
43606;SDS011;29197;44.788;10.366;2023-05-07T14:19:26;3.22;;;3.00;;
43606;SDS011;29197;44.788;10.366;2023-05-07T14:22:17;6.38;;;3.75;;
43606;SDS011;29197;44.788;10.366;2023-05-07T14:25:06;3.20;;;2.63;;
43606;SDS011;29197;44.788;10.366;2023-05-07T14:27:56;4.40;;;3.50;;
43606;SDS011;29197;44.788;10.366;2023-05-07T14:30:44;3.03;;;2.75;;
43606;SDS011;29197;44.788;10.366;2023-05-07T14:33:33;3.97;;;3.58;;
43606;SDS011;29197;44.788;10.366;2023-05-07T14:36:21;4.22;;;3.22;;
43606;SDS011;29197;44.788;10.366;2023-05-07T14:39:14;3.45;;;2.80;;
43606;SDS011;29197;44.788;10.366;2023-05-07T14:42:03;3.83;;;3.13;;
43606;SDS011;29197;44.788;10.366;2023-05-07T14:44:54;3.45;;;2.92;;
43606;SDS011;29197;44.788;10.366;2023-05-07T14:47:42;3.37;;;2.90;;
43606;SDS011;29197;44.788;10.366;2023-05-07T14:50:31;2.20;;;2.00;;
43606;SDS011;29197;44.788;10.366;2023-05-07T14:53:20;3.42;;;2.60;;
43606;SDS011;29197;44.788;10.366;2023-05-07T14:56:10;4.97;;;2.80;;
43606;SDS011;29197;44.788;10.366;2023-05-07T14:58:59;2.67;;;2.45;;
43606;SDS011;29197;44.788;10.366;2023-05-07T15:01:47;4.40;;;3.90;;
43606;SDS011;29197;44.788;10.366;2023-05-07T15:04:36;5.60;;;3.95;;
43606;SDS011;29197;44.788;10.366;2023-05-07T15:07:27;5.30;;;2.47;;
43606;SDS011;29197;44.788;10.366;2023-05-07T15:10:15;2.55;;;2.30;;
43606;SDS011;29197;44.788;10.366;2023-05-07T15:13:05;3.92;;;3.20;;
43606;SDS011;29197;44.788;10.366;2023-05-07T15:15:55;2.72;;;2.42;;
43606;SDS011;29197;44.788;10.366;2023-05-07T15:18:43;2.30;;;2.10;;
43606;SDS011;29197;44.788;10.366;2023-05-07T15:21:32;3.30;;;2.90;;
43606;SDS011;29197;44.788;10.366;2023-05-07T15:24:22;2.55;;;2.00;;
43606;SDS011;29197;44.788;10.366;2023-05-07T15:27:10;2.70;;;2.28;;
43606;SDS011;29197;44.788;10.366;2023-05-07T15:30:00;3.63;;;2.90;;
43606;SDS011;29197;44.788;10.366;2023-05-07T15:32:49;6.17;;;2.90;;
43606;SDS011;29197;44.788;10.366;2023-05-07T15:35:38;3.40;;;2.43;;
43606;SDS011;29197;44.788;10.366;2023-05-07T15:38:26;2.10;;;2.00;;
43606;SDS011;29197;44.788;10.366;2023-05-07T15:41:15;3.37;;;2.73;;
43606;SDS011;29197;44.788;10.366;2023-05-07T15:44:03;4.30;;;3.50;;
43606;SDS011;29197;44.788;10.366;2023-05-07T15:46:53;1.95;;;1.75;;
43606;SDS011;29197;44.788;10.366;2023-05-07T15:49:42;3.90;;;2.70;;
43606;SDS011;29197;44.788;10.366;2023-05-07T15:52:31;2.50;;;2.08;;
43606;SDS011;29197;44.788;10.366;2023-05-07T15:55:20;2.35;;;1.92;;
43606;SDS011;29197;44.788;10.366;2023-05-07T15:58:09;1.90;;;1.65;;
43606;SDS011;29197;44.788;10.366;2023-05-07T16:00:58;1.67;;;1.57;;
43606;SDS011;29197;44.788;10.366;2023-05-07T16:03:49;4.90;;;3.60;;
43606;SDS011;29197;44.788;10.366;2023-05-07T16:06:37;3.17;;;2.20;;
43606;SDS011;29197;44.788;10.366;2023-05-07T16:09:26;2.90;;;2.37;;
43606;SDS011;29197;44.788;10.366;2023-05-07T16:12:15;2.95;;;2.40;;
43606;SDS011;29197;44.788;10.366;2023-05-07T16:15:05;3.07;;;2.40;;
43606;SDS011;29197;44.788;10.366;2023-05-07T16:17:54;2.90;;;2.30;;
43606;SDS011;29197;44.788;10.366;2023-05-07T16:20:46;2.87;;;2.20;;
43606;SDS011;29197;44.788;10.366;2023-05-07T16:23:35;4.57;;;2.65;;
43606;SDS011;29197;44.788;10.366;2023-05-07T16:26:24;3.53;;;2.70;;
43606;SDS011;29197;44.788;10.366;2023-05-07T16:29:13;1.52;;;1.42;;
43606;SDS011;29197;44.788;10.366;2023-05-07T16:32:01;3.33;;;2.70;;
43606;SDS011;29197;44.788;10.366;2023-05-07T16:34:50;2.30;;;2.10;;
43606;SDS011;29197;44.788;10.366;2023-05-07T16:37:40;1.70;;;1.60;;
43606;SDS011;29197;44.788;10.366;2023-05-07T16:40:28;2.22;;;1.88;;
43606;SDS011;29197;44.788;10.366;2023-05-07T16:43:17;3.30;;;2.10;;
43606;SDS011;29197;44.788;10.366;2023-05-07T16:46:06;2.20;;;2.00;;
43606;SDS011;29197;44.788;10.366;2023-05-07T16:48:54;2.13;;;1.92;;
43606;SDS011;29197;44.788;10.366;2023-05-07T16:51:43;2.03;;;1.80;;